Time;durP1;ratioP1;P1;durP2;ratioP2;P2;SDS_P1;SDS_P2;PMS_P1;PMS_P2;Temp;Humidity;BMP_temperature;BMP_pressure;BME280_temperature;BME280_humidity;BME280_pressure;Samples;Min_cycle;Max_cycle;Signal;HPM_P1;HPM_P2
2023/04/12 00:01:06;;;;;;;8.60;4.43;;;;;;;10.29;57.82;95765.38;4968388;28;20835;-68
2023/04/12 00:03:32;;;;;;;6.50;3.67;;;;;;;10.27;58.54;95767.19;4969167;28;20681;-67
2023/04/12 00:06:02;;;;;;;5.57;3.30;;;;;;;10.15;58.68;95757.34;4979428;28;20626;-68
2023/04/12 00:08:32;;;;;;;6.57;4.03;;;;;;;10.22;59.30;95761.34;4980321;28;20508;-67
2023/04/12 00:11:02;;;;;;;4.73;3.97;;;;;;;10.18;59.24;95762.41;4983949;28;20490;-68
2023/04/12 00:13:28;;;;;;;6.80;3.90;;;;;;;10.27;59.28;95761.09;4977835;28;20826;-67
2023/04/12 00:15:54;;;;;;;8.80;4.00;;;;;;;10.21;59.42;95758.81;4979393;28;20424;-68
2023/04/12 00:18:23;;;;;;;5.97;3.57;;;;;;;10.14;60.52;95758.28;4982723;28;20491;-67
2023/04/12 00:20:51;;;;;;;7.93;3.97;;;;;;;10.15;60.42;95754.72;4968357;28;20884;-66
2023/04/12 00:23:17;;;;;;;5.60;3.60;;;;;;;10.07;61.05;95756.91;4985655;28;20426;-66
2023/04/12 00:25:43;;;;;;;8.63;4.00;;;;;;;9.98;61.87;95758.22;4976099;28;21006;-67
2023/04/12 00:28:09;;;;;;;6.03;4.10;;;;;;;10.00;62.00;95752.91;4980054;28;20177;-68
2023/04/12 00:30:34;;;;;;;8.43;3.97;;;;;;;9.93;62.64;95747.97;4975872;28;20191;-67
2023/04/12 00:33:00;;;;;;;6.83;3.87;;;;;;;9.88;62.42;95747.38;4978466;28;20184;-67
2023/04/12 00:35:25;;;;;;;7.40;3.60;;;;;;;9.84;63.29;95739.75;4986766;28;20176;-67
2023/04/12 00:37:51;;;;;;;4.90;3.87;;;;;;;9.83;64.01;95730.22;4975168;28;20177;-67
2023/04/12 00:40:16;;;;;;;4.37;3.37;;;;;;;9.87;63.39;95737.81;4976456;28;20201;-68
2023/04/12 00:42:41;;;;;;;6.23;3.33;;;;;;;9.92;63.58;95734.94;4976401;28;20596;-67
2023/04/12 00:45:08;;;;;;;11.00;4.40;;;;;;;9.93;63.73;95740.13;4976760;28;20191;-68
2023/04/12 00:47:35;;;;;;;4.53;3.20;;;;;;;9.89;64.11;95730.72;4984113;28;20173;-67
2023/04/12 00:50:02;;;;;;;5.50;4.00;;;;;;;9.84;64.16;95724.88;4967543;28;20535;-67
2023/04/12 00:52:33;;;;;;;5.13;3.03;;;;;;;9.83;63.74;95720.56;4974257;28;20427;-68
2023/04/12 00:55:09;;;;;;;8.20;3.70;;;;;;;9.84;63.61;95721.41;4978001;28;20971;-67
2023/04/12 00:57:36;;;;;;;4.63;3.30;;;;;;;9.85;64.66;95715.22;4967360;28;20451;-68
2023/04/12 01:00:07;;;;;;;13.40;3.60;;;;;;;9.86;64.51;95717.78;4980993;28;20534;-68
2023/04/12 01:02:34;;;;;;;6.13;4.07;;;;;;;9.86;64.89;95720.41;4979598;28;20455;-68
2023/04/12 01:05:01;;;;;;;13.53;4.10;;;;;;;9.78;65.45;95717.34;4985190;28;20428;-67
2023/04/12 01:07:54;;;;;;;5.87;3.83;;;;;;;9.72;66.19;95707.16;4978433;28;20984;-67
2023/04/12 01:10:30;;;;;;;5.23;3.70;;;;;;;9.80;65.57;95704.97;4969621;28;20444;-67
2023/04/12 01:13:13;;;;;;;6.13;3.27;;;;;;;9.65;66.47;95711.03;4979284;28;22045;-67
2023/04/12 01:15:50;;;;;;;3.63;3.10;;;;;;;9.70;66.72;95703.78;4977625;28;20937;-67
2023/04/12 01:18:20;;;;;;;3.70;2.77;;;;;;;9.74;66.71;95700.06;4977883;28;20420;-67
2023/04/12 01:21:00;;;;;;;4.77;3.50;;;;;;;9.66;67.83;95692.63;4978186;28;20551;-67
2023/04/12 01:24:12;;;;;;;6.67;3.97;;;;;;;9.65;67.42;95696.16;4979173;28;20417;-67
2023/04/12 01:26:43;;;;;;;7.70;3.40;;;;;;;9.70;67.60;95698.53;4981930;28;20427;-68
2023/04/12 01:29:12;;;;;;;8.87;4.60;;;;;;;9.67;68.11;95688.22;4976813;28;20424;-67
2023/04/12 01:31:52;;;;;;;5.83;3.57;;;;;;;9.72;67.54;95687.03;4982491;28;20472;-67
2023/04/12 01:34:19;;;;;;;5.47;3.20;;;;;;;9.70;68.03;95675.78;4973985;28;20507;-67
2023/04/12 01:36:47;;;;;;;3.57;2.97;;;;;;;9.68;67.50;95676.81;4977219;28;20536;-67
2023/04/12 01:39:12;;;;;;;3.17;2.63;;;;;;;9.67;68.43;95669.88;4978651;28;20572;-67
2023/04/12 01:41:41;;;;;;;4.80;3.20;;;;;;;9.66;68.47;95678.66;4983406;28;20562;-68
2023/04/12 01:44:06;;;;;;;4.90;3.00;;;;;;;9.71;68.30;95664.41;4980956;28;20187;-67
2023/04/12 01:46:33;;;;;;;12.13;4.00;;;;;;;9.78;68.21;95649.22;4980391;28;20433;-67
2023/04/12 01:48:59;;;;;;;5.60;3.43;;;;;;;9.60;68.43;95651.00;4979634;28;20208;-68
2023/04/12 01:51:43;;;;;;;4.90;2.80;;;;;;;9.53;69.21;95649.63;4969112;28;21973;-68
2023/04/12 01:54:16;;;;;;;4.10;3.30;;;;;;;9.44;69.57;95643.09;4977542;28;20180;-68
2023/04/12 01:56:48;;;;;;;8.13;3.50;;;;;;;9.51;69.82;95641.84;4980566;28;20503;-68
2023/04/12 01:59:16;;;;;;;5.63;3.10;;;;;;;9.40;69.57;95641.59;4977850;28;20429;-68
2023/04/12 02:01:43;;;;;;;7.90;3.60;;;;;;;9.52;69.39;95638.31;4972563;28;20464;-67
2023/04/12 02:04:08;;;;;;;11.73;3.07;;;;;;;9.47;70.26;95629.00;4978820;28;21180;-67
2023/04/12 02:06:34;;;;;;;16.43;4.10;;;;;;;9.48;69.87;95617.59;4979690;28;20421;-68
2023/04/12 02:09:01;;;;;;;9.13;3.10;;;;;;;9.21;71.47;95627.72;4981656;28;20185;-67
2023/04/12 02:11:28;;;;;;;6.53;2.60;;;;;;;9.27;70.89;95622.19;4976811;28;20193;-67
2023/04/12 02:13:53;;;;;;;7.80;3.00;;;;;;;8.96;71.82;95621.13;4970662;28;20421;-66
2023/04/12 02:16:22;;;;;;;4.17;2.80;;;;;;;9.22;70.53;95616.34;4978368;28;21121;-66
2023/04/12 02:18:50;;;;;;;5.63;3.30;;;;;;;9.11;71.11;95616.88;4978692;28;20556;-66
2023/04/12 02:21:16;;;;;;;8.17;3.40;;;;;;;9.14;71.16;95602.78;4979804;28;20464;-66
2023/04/12 02:23:42;;;;;;;7.07;3.10;;;;;;;9.10;72.01;95595.09;4981258;28;20519;-67
2023/04/12 02:26:11;;;;;;;6.00;2.63;;;;;;;8.96;71.86;95597.56;4977981;28;20471;-67
2023/04/12 02:28:38;;;;;;;3.23;2.60;;;;;;;9.00;71.51;95593.00;4972836;28;20501;-66
2023/04/12 02:31:05;;;;;;;9.80;3.13;;;;;;;9.16;70.31;95588.69;4988679;28;20855;-67
2023/04/12 02:33:32;;;;;;;8.47;3.30;;;;;;;9.04;71.85;95584.91;4983688;28;20863;-68
2023/04/12 02:35:58;;;;;;;5.40;2.73;;;;;;;9.25;70.41;95572.50;4977925;28;20421;-67
2023/04/12 02:38:23;;;;;;;5.90;2.67;;;;;;;9.19;70.92;95577.19;4979978;28;20415;-66
2023/04/12 02:40:49;;;;;;;4.77;2.67;;;;;;;9.04;71.40;95568.38;4987800;28;21098;-67
2023/04/12 02:43:14;;;;;;;2.80;2.50;;;;;;;8.76;72.23;95564.53;4979513;28;20211;-67
2023/04/12 02:45:40;;;;;;;3.47;2.80;;;;;;;8.92;71.81;95558.53;4988907;28;20200;-67
2023/04/12 02:48:05;;;;;;;3.93;2.57;;;;;;;9.13;71.80;95551.38;4988747;28;20664;-67
2023/04/12 02:50:31;;;;;;;5.10;3.13;;;;;;;9.22;70.78;95550.91;4988019;28;20203;-67
2023/04/12 02:52:56;;;;;;;7.03;2.67;;;;;;;9.38;70.70;95553.53;4979111;28;20178;-68
2023/04/12 02:55:21;;;;;;;3.23;2.90;;;;;;;9.49;70.42;95544.19;4974579;28;20300;-67
2023/04/12 02:57:47;;;;;;;3.60;2.80;;;;;;;9.45;70.13;95545.28;4982051;28;20200;-67
2023/04/12 03:00:16;;;;;;;4.63;2.97;;;;;;;9.44;70.49;95535.72;4969923;28;20559;-67
2023/04/12 03:02:43;;;;;;;6.53;3.30;;;;;;;9.43;70.37;95539.28;4980749;28;20903;-67
2023/04/12 03:05:09;;;;;;;7.97;3.37;;;;;;;9.46;70.50;95533.88;4980233;28;20433;-68
2023/04/12 03:07:35;;;;;;;5.17;2.63;;;;;;;9.32;70.77;95536.38;4976644;28;20432;-68
2023/04/12 03:10:01;;;;;;;4.20;2.83;;;;;;;9.37;70.23;95539.59;4988045;28;20981;-68
2023/04/12 03:12:27;;;;;;;4.33;3.20;;;;;;;9.40;70.08;95533.34;4980595;28;20176;-68
2023/04/12 03:14:53;;;;;;;5.13;3.30;;;;;;;9.36;69.93;95530.06;4988743;28;20889;-68
2023/04/12 03:17:18;;;;;;;6.67;3.27;;;;;;;9.40;70.29;95531.59;4982369;28;20432;-68
2023/04/12 03:19:44;;;;;;;4.00;2.83;;;;;;;9.40;70.18;95528.13;4970128;28;20201;-68
2023/04/12 03:22:10;;;;;;;3.20;2.53;;;;;;;9.30;70.83;95518.13;4978399;28;20212;-68
2023/04/12 03:24:36;;;;;;;3.00;2.63;;;;;;;9.35;70.35;95517.03;4971732;28;20428;-67
2023/04/12 03:27:03;;;;;;;3.67;3.37;;;;;;;9.33;70.04;95509.28;4983460;28;20649;-68
2023/04/12 03:29:29;;;;;;;8.73;3.10;;;;;;;9.26;70.16;95505.28;4975645;28;20506;-69
2023/04/12 03:31:56;;;;;;;8.87;3.33;;;;;;;9.10;71.18;95505.25;4985840;28;20518;-68
2023/04/12 03:34:23;;;;;;;3.33;2.40;;;;;;;9.02;72.48;95500.41;4971640;28;20430;-68
2023/04/12 03:36:49;;;;;;;9.23;2.87;;;;;;;8.90;72.92;95488.84;4975551;28;21217;-67
2023/04/12 03:39:15;;;;;;;3.67;2.90;;;;;;;9.04;71.57;95485.47;4983374;28;20459;-67
2023/04/12 03:41:41;;;;;;;2.80;2.30;;;;;;;9.07;71.28;95485.34;4972753;28;20197;-67
2023/04/12 03:44:07;;;;;;;4.00;2.93;;;;;;;9.12;71.07;95482.47;4977445;28;20177;-67
2023/04/12 03:46:33;;;;;;;3.83;2.73;;;;;;;8.94;71.63;95478.19;4971988;28;20524;-68
2023/04/12 03:48:58;;;;;;;4.70;2.40;;;;;;;9.05;72.46;95481.09;4980473;28;20177;-68
2023/04/12 03:51:25;;;;;;;2.40;2.20;;;;;;;9.08;71.28;95473.91;4987219;28;20440;-68
2023/04/12 03:53:52;;;;;;;6.97;2.53;;;;;;;9.17;71.99;95474.38;4983582;28;20209;-68
2023/04/12 03:56:18;;;;;;;2.90;2.40;;;;;;;9.16;72.18;95470.06;4968769;28;20421;-67
2023/04/12 03:58:44;;;;;;;2.83;2.27;;;;;;;9.08;71.35;95466.06;4981811;28;21095;-66
2023/04/12 04:01:12;;;;;;;4.40;2.70;;;;;;;8.97;71.74;95463.16;4986833;28;20534;-67
2023/04/12 04:03:39;;;;;;;6.20;3.30;;;;;;;9.01;71.46;95458.63;4972713;28;20619;-67
2023/04/12 04:06:06;;;;;;;2.60;2.30;;;;;;;8.94;72.00;95452.03;4980947;28;20428;-68
2023/04/12 04:08:31;;;;;;;9.10;2.80;;;;;;;9.14;72.19;95457.03;4992531;28;20427;-68
2023/04/12 04:10:57;;;;;;;9.03;2.43;;;;;;;9.02;72.42;95460.31;4978093;28;20437;-67
2023/04/12 04:13:23;;;;;;;4.70;3.20;;;;;;;8.89;72.55;95452.28;4991529;28;20184;-68
2023/04/12 04:15:55;;;;;;;3.20;1.90;;;;;;;9.15;72.12;95445.66;4983509;28;20177;-68
2023/04/12 04:18:21;;;;;;;8.83;2.97;;;;;;;9.10;72.28;95431.97;4988373;28;20220;-67
2023/04/12 04:20:46;;;;;;;7.83;3.47;;;;;;;8.96;72.23;95435.31;4974370;28;20461;-68
2023/04/12 04:23:11;;;;;;;9.53;2.80;;;;;;;9.06;71.83;95440.91;4979808;28;20182;-67
2023/04/12 04:25:38;;;;;;;15.40;2.77;;;;;;;9.13;71.32;95429.19;4977840;28;20196;-67
2023/04/12 04:28:06;;;;;;;6.47;2.43;;;;;;;9.09;71.43;95419.81;4968216;28;20177;-67
2023/04/12 04:30:37;;;;;;;6.47;2.90;;;;;;;9.07;71.32;95425.13;4971323;28;20467;-67
2023/04/12 04:33:06;;;;;;;4.27;2.13;;;;;;;9.04;71.69;95414.81;4986587;28;20517;-67
2023/04/12 04:35:31;;;;;;;5.80;2.30;;;;;;;9.06;71.14;95418.19;4985573;28;20980;-68
2023/04/12 04:37:57;;;;;;;3.90;1.90;;;;;;;8.89;72.00;95415.66;4985704;28;20413;-68
2023/04/12 04:40:23;;;;;;;7.60;2.13;;;;;;;8.89;72.85;95408.63;4972761;28;20309;-69
2023/04/12 04:42:56;;;;;;;6.33;2.80;;;;;;;8.89;72.15;95410.41;4983919;28;20885;-68
2023/04/12 04:45:25;;;;;;;3.63;2.10;;;;;;;8.91;72.08;95411.19;4968297;28;20857;-69
2023/04/12 04:47:54;;;;;;;3.10;2.40;;;;;;;8.51;73.57;95402.81;4974468;28;20421;-67
2023/04/12 04:50:21;;;;;;;10.70;3.00;;;;;;;8.77;72.59;95408.44;4982045;28;20981;-70
2023/04/12 04:52:47;;;;;;;4.80;1.90;;;;;;;8.46;73.30;95404.81;4971083;28;20424;-68
2023/04/12 04:55:13;;;;;;;6.03;2.17;;;;;;;8.61;73.71;95411.00;4967648;28;20519;-68
2023/04/12 04:57:39;;;;;;;11.07;3.07;;;;;;;8.68;73.46;95404.53;4967287;28;20189;-68
2023/04/12 05:00:09;;;;;;;7.00;2.40;;;;;;;8.77;72.76;95409.28;4980479;28;20575;-69
2023/04/12 05:02:35;;;;;;;10.73;2.90;;;;;;;8.84;72.77;95399.34;4970848;28;20425;-68
2023/04/12 05:05:03;;;;;;;2.87;1.90;;;;;;;8.85;72.19;95409.72;4981239;28;20429;-68
2023/04/12 05:07:29;;;;;;;4.37;3.73;;;;;;;8.74;73.36;95399.00;4980327;28;20425;-68
2023/04/12 05:09:54;;;;;;;2.27;1.97;;;;;;;8.95;71.88;95398.75;4967216;28;20494;-70
2023/04/12 05:12:20;;;;;;;7.20;2.30;;;;;;;8.80;72.40;95395.19;4977704;28;20177;-68
2023/04/12 05:14:45;;;;;;;2.20;2.00;;;;;;;8.65;73.40;95392.47;4974936;28;20601;-69
2023/04/12 05:17:11;;;;;;;2.30;2.10;;;;;;;8.67;72.58;95388.00;4983423;28;20184;-69
2023/04/12 05:19:36;;;;;;;3.97;2.40;;;;;;;8.79;72.62;95388.28;4976654;28;20198;-67
2023/04/12 05:22:01;;;;;;;5.50;2.80;;;;;;;8.87;72.07;95383.47;4972173;28;20205;-66
2023/04/12 05:24:27;;;;;;;9.43;4.00;;;;;;;8.60;73.93;95383.19;4977775;28;20334;-67
2023/04/12 05:26:52;;;;;;;2.90;2.50;;;;;;;8.45;74.52;95383.03;4973443;28;20178;-68
2023/04/12 05:29:18;;;;;;;3.63;2.80;;;;;;;8.68;73.68;95378.38;4986672;28;20256;-67
2023/04/12 05:31:43;;;;;;;7.23;2.97;;;;;;;8.27;74.82;95378.75;4977335;28;20174;-67
2023/04/12 05:34:08;;;;;;;5.23;3.00;;;;;;;7.89;77.03;95383.25;4975905;28;20626;-67
2023/04/12 05:36:34;;;;;;;4.17;2.57;;;;;;;8.49;74.13;95381.13;4973332;28;20177;-67
2023/04/12 05:39:00;;;;;;;6.80;2.80;;;;;;;8.66;72.99;95383.69;4973098;28;20268;-67
2023/04/12 05:41:26;;;;;;;8.03;2.60;;;;;;;8.68;73.10;95374.00;4983940;28;20215;-67
2023/04/12 05:43:51;;;;;;;5.50;2.63;;;;;;;8.66;73.92;95369.78;4977093;28;20192;-67
2023/04/12 05:46:16;;;;;;;9.63;3.37;;;;;;;8.67;73.75;95371.47;4965867;28;20177;-68
2023/04/12 05:48:42;;;;;;;8.80;3.07;;;;;;;8.79;73.32;95367.38;4969012;28;20849;-67
2023/04/12 05:51:07;;;;;;;5.40;2.63;;;;;;;8.62;73.69;95358.66;4982863;28;20314;-68
2023/04/12 05:53:33;;;;;;;3.40;2.40;;;;;;;8.76;72.76;95355.25;4977978;28;20178;-68
2023/04/12 05:55:58;;;;;;;10.27;3.20;;;;;;;8.83;72.52;95351.41;4973537;28;20173;-68
2023/04/12 05:58:24;;;;;;;4.13;2.53;;;;;;;8.94;72.49;95353.44;4977878;28;20177;-68
2023/04/12 06:00:50;;;;;;;8.80;2.90;;;;;;;8.80;73.21;95351.56;4972483;28;20224;-67
2023/04/12 06:03:16;;;;;;;5.60;3.00;;;;;;;8.78;73.68;95353.41;4975336;28;20608;-67
2023/04/12 06:05:41;;;;;;;11.73;3.03;;;;;;;8.72;72.97;95345.03;4967026;28;20428;-69
2023/04/12 06:08:07;;;;;;;13.37;2.97;;;;;;;8.86;72.71;95345.19;4968988;28;20283;-67
2023/04/12 06:10:33;;;;;;;13.47;4.43;;;;;;;8.82;73.05;95341.88;4975827;28;20207;-67
2023/04/12 06:12:58;;;;;;;5.07;2.67;;;;;;;8.88;72.49;95349.41;4966832;28;20390;-67
2023/04/12 06:15:24;;;;;;;3.73;2.47;;;;;;;8.90;72.36;95346.69;4971856;28;20177;-67
2023/04/12 06:17:52;;;;;;;7.67;2.90;;;;;;;8.94;71.96;95352.59;4972563;28;20925;-68
2023/04/12 06:20:17;;;;;;;8.53;3.37;;;;;;;8.91;72.34;95356.25;4977487;28;20259;-68
2023/04/12 06:22:43;;;;;;;9.50;3.73;;;;;;;8.45;74.08;95348.22;4983916;28;20519;-68
2023/04/12 06:25:08;;;;;;;15.23;3.33;;;;;;;8.71;73.85;95346.00;4975803;28;20173;-68
2023/04/12 06:27:34;;;;;;;6.07;2.83;;;;;;;8.94;73.15;95344.75;4977602;28;20710;-68
2023/04/12 06:29:59;;;;;;;14.23;3.70;;;;;;;8.88;72.72;95341.56;4987832;28;20920;-68
2023/04/12 06:32:25;;;;;;;25.17;5.30;;;;;;;9.01;72.73;95333.88;4970985;28;20174;-68
2023/04/12 06:34:50;;;;;;;5.97;3.17;;;;;;;8.79;73.92;95322.91;4976789;28;20185;-68
2023/04/12 06:37:16;;;;;;;7.47;3.10;;;;;;;8.86;73.56;95329.47;4968409;28;20253;-68
2023/04/12 06:39:41;;;;;;;11.90;3.60;;;;;;;8.73;73.02;95321.44;4967867;28;20193;-68
2023/04/12 06:42:06;;;;;;;4.80;2.90;;;;;;;8.93;73.56;95324.72;4968029;28;20309;-67
2023/04/12 06:44:32;;;;;;;6.50;2.80;;;;;;;9.02;72.26;95325.06;4968055;28;20643;-68
2023/04/12 06:46:58;;;;;;;10.50;2.87;;;;;;;8.80;74.09;95314.94;4967508;28;20619;-68
2023/04/12 06:49:24;;;;;;;3.50;3.20;;;;;;;8.97;73.02;95316.63;4967958;28;20162;-67
2023/04/12 06:51:50;;;;;;;6.97;3.13;;;;;;;8.67;74.42;95295.63;4968781;28;20174;-67
2023/04/12 06:54:16;;;;;;;4.80;3.10;;;;;;;8.50;74.38;95286.06;4974311;28;20427;-67
2023/04/12 06:56:41;;;;;;;11.27;4.27;;;;;;;8.75;74.41;95289.97;4986578;28;20227;-67
2023/04/12 06:59:07;;;;;;;6.93;2.90;;;;;;;8.82;74.80;95286.94;4987435;28;20227;-67
2023/04/12 07:01:33;;;;;;;6.87;3.30;;;;;;;8.83;73.69;95277.31;5002360;28;20351;-66
2023/04/12 07:03:59;;;;;;;5.20;2.60;;;;;;;8.67;74.06;95267.69;4980428;28;20923;-67
2023/04/12 07:06:24;;;;;;;5.33;2.87;;;;;;;8.84;73.77;95271.16;4985122;28;20649;-67
2023/04/12 07:08:49;;;;;;;7.30;3.60;;;;;;;8.84;74.25;95268.53;4986823;28;20187;-67
2023/04/12 07:11:15;;;;;;;18.70;4.00;;;;;;;9.04;73.95;95252.56;4986801;28;20224;-66
2023/04/12 07:13:40;;;;;;;5.63;2.50;;;;;;;8.60;74.90;95253.28;4981696;28;21029;-67
2023/04/12 07:16:06;;;;;;;4.23;2.50;;;;;;;8.80;74.92;95249.53;4978512;28;20578;-68
2023/04/12 07:18:31;;;;;;;4.60;2.30;;;;;;;8.88;73.72;95247.38;4970002;28;20268;-67
2023/04/12 07:20:57;;;;;;;4.80;2.50;;;;;;;9.08;73.78;95238.38;4980323;28;20197;-67
2023/04/12 07:23:24;;;;;;;3.23;2.53;;;;;;;9.07;73.87;95233.22;4975342;28;20173;-68
2023/04/12 07:25:50;;;;;;;6.97;3.53;;;;;;;9.28;73.64;95226.78;4984268;28;20173;-67
2023/04/12 07:28:16;;;;;;;3.70;2.40;;;;;;;9.15;73.92;95214.50;4972881;28;20541;-67
2023/04/12 07:30:41;;;;;;;8.07;3.10;;;;;;;8.75;75.11;95216.75;4977414;28;20888;-67
2023/04/12 07:33:06;;;;;;;7.20;2.70;;;;;;;8.92;74.68;95215.78;4987027;28;20215;-68
2023/04/12 07:35:32;;;;;;;15.77;4.27;;;;;;;9.13;75.39;95216.34;4985791;28;20208;-67
2023/04/12 07:37:58;;;;;;;4.40;2.60;;;;;;;9.02;74.70;95209.09;4972349;28;20190;-67
2023/04/12 07:40:24;;;;;;;7.70;3.50;;;;;;;9.22;74.16;95192.28;4968634;28;20464;-68
2023/04/12 07:42:50;;;;;;;5.83;2.10;;;;;;;9.14;74.07;95197.09;4978034;28;20204;-68
2023/04/12 07:45:15;;;;;;;5.37;2.70;;;;;;;8.97;74.93;95185.81;4971125;28;20813;-67
2023/04/12 07:47:41;;;;;;;7.40;2.70;;;;;;;9.06;74.85;95173.97;4983643;28;20567;-68
2023/04/12 07:50:07;;;;;;;7.50;2.90;;;;;;;9.07;75.18;95173.91;4981469;28;20189;-68
2023/04/12 07:52:33;;;;;;;5.10;2.70;;;;;;;8.89;75.51;95169.72;4977291;28;20237;-68
2023/04/12 07:54:59;;;;;;;24.07;4.63;;;;;;;8.92;75.47;95193.06;4977928;28;20432;-68
2023/04/12 07:57:25;;;;;;;4.23;3.20;;;;;;;8.75;76.28;95172.28;4984933;28;20212;-68
2023/04/12 07:59:51;;;;;;;5.93;3.57;;;;;;;9.23;74.13;95154.69;4986112;28;20569;-69
2023/04/12 08:02:23;;;;;;;3.10;2.80;;;;;;;9.01;74.65;95155.09;4986562;28;20460;-69
2023/04/12 08:04:49;;;;;;;4.93;2.77;;;;;;;9.25;74.68;95150.19;4980575;28;20236;-68
2023/04/12 08:07:15;;;;;;;4.73;2.90;;;;;;;9.38;73.64;95153.78;4975527;28;21010;-68
2023/04/12 08:09:40;;;;;;;5.07;2.47;;;;;;;9.42;73.39;95147.41;4968373;28;20460;-69
2023/04/12 08:12:06;;;;;;;4.60;2.40;;;;;;;9.46;73.15;95150.72;4985457;28;20183;-69
2023/04/12 08:14:31;;;;;;;8.00;2.93;;;;;;;9.67;73.22;95161.69;4987665;28;20177;-69
2023/04/12 08:16:57;;;;;;;3.53;2.40;;;;;;;9.39;73.79;95158.06;4977044;28;20185;-69
2023/04/12 08:19:22;;;;;;;5.50;2.90;;;;;;;9.73;73.16;95143.81;4968461;28;20693;-68
2023/04/12 08:21:48;;;;;;;7.33;3.70;;;;;;;9.59;73.38;95142.94;4968662;28;20249;-68
2023/04/12 08:24:13;;;;;;;12.27;4.13;;;;;;;9.94;72.89;95144.28;4985832;28;20526;-67
2023/04/12 08:26:39;;;;;;;9.07;3.23;;;;;;;10.13;72.29;95143.13;5001929;28;20205;-68
2023/04/12 08:29:04;;;;;;;9.30;4.23;;;;;;;10.35;71.23;95145.31;4987882;28;20173;-68
2023/04/12 08:31:30;;;;;;;5.60;2.70;;;;;;;10.09;72.00;95145.13;4974701;28;20549;-69
2023/04/12 08:33:55;;;;;;;2.70;2.50;;;;;;;10.23;71.65;95136.41;4984718;28;20235;-68
2023/04/12 08:36:21;;;;;;;2.73;2.50;;;;;;;10.13;71.63;95143.13;4975961;28;20175;-68
2023/04/12 08:38:51;;;;;;;4.60;2.80;;;;;;;10.35;70.96;95135.66;4976751;28;20643;-69
2023/04/12 08:41:17;;;;;;;5.70;3.83;;;;;;;10.47;71.02;95138.44;4972284;28;20208;-69
2023/04/12 08:43:45;;;;;;;3.47;2.57;;;;;;;10.52;70.67;95146.84;4978739;28;20456;-69
2023/04/12 08:46:14;;;;;;;7.13;3.37;;;;;;;10.49;70.64;95129.53;4978827;28;20425;-68
2023/04/12 08:48:42;;;;;;;7.00;3.47;;;;;;;10.44;71.38;95131.59;4975127;28;20436;-68
2023/04/12 08:51:11;;;;;;;23.10;4.30;;;;;;;10.35;71.35;95127.78;4973584;28;21070;-68
2023/04/12 08:53:37;;;;;;;10.40;2.73;;;;;;;10.39;72.37;95131.03;4969414;28;20428;-68
2023/04/12 08:56:05;;;;;;;5.00;3.10;;;;;;;10.56;70.28;95127.38;4980223;28;20799;-68
2023/04/12 08:58:32;;;;;;;8.10;3.20;;;;;;;10.66;70.71;95115.31;4967764;28;20416;-68
2023/04/12 09:00:59;;;;;;;23.90;4.17;;;;;;;10.76;70.91;95119.03;4967963;28;20889;-68
2023/04/12 09:03:25;;;;;;;9.30;3.63;;;;;;;10.97;69.81;95121.19;4967539;28;21110;-68
2023/04/12 09:05:50;;;;;;;13.17;5.93;;;;;;;11.00;69.01;95110.47;4966934;28;20409;-67
2023/04/12 09:08:16;;;;;;;3.60;3.10;;;;;;;10.88;69.34;95108.66;4967664;28;20173;-68
2023/04/12 09:10:41;;;;;;;8.37;2.93;;;;;;;10.84;69.61;95104.56;4985955;28;20196;-68
2023/04/12 09:13:08;;;;;;;3.30;3.00;;;;;;;10.87;70.23;95096.50;4986817;28;20180;-68
2023/04/12 09:15:33;;;;;;;3.80;3.40;;;;;;;10.97;69.48;95092.31;4970666;28;20171;-68
2023/04/12 09:18:07;;;;;;;4.20;3.37;;;;;;;10.90;70.74;95091.03;4986495;28;20451;-68
2023/04/12 09:20:33;;;;;;;5.83;3.90;;;;;;;10.99;70.84;95098.31;4986911;28;20201;-68
2023/04/12 09:22:59;;;;;;;4.47;3.27;;;;;;;11.20;70.34;95091.63;4986603;28;20486;-68
2023/04/12 09:25:41;;;;;;;3.87;2.83;;;;;;;11.11;69.99;95089.63;4980238;28;20464;-68
2023/04/12 09:28:24;;;;;;;3.60;3.30;;;;;;;11.18;69.48;95075.13;4979964;28;20521;-67
2023/04/12 09:30:54;;;;;;;4.00;2.72;;;;;;;11.23;69.22;95070.41;4973979;28;20434;-68
2023/04/12 09:33:35;;;;;;;2.97;2.57;;;;;;;11.17;69.47;95081.34;4980297;28;20339;-68
2023/04/12 09:36:02;;;;;;;3.53;3.23;;;;;;;11.16;70.08;95078.81;4985996;28;20404;-68
2023/04/12 09:38:32;;;;;;;4.20;2.77;;;;;;;11.16;69.97;95076.19;4987253;28;20411;-69
2023/04/12 09:41:18;;;;;;;13.07;5.23;;;;;;;11.30;69.84;95059.50;4986163;28;20472;-68
2023/04/12 09:43:43;;;;;;;9.33;4.20;;;;;;;11.51;69.73;95060.63;4987134;28;20882;-67
2023/04/12 09:46:13;;;;;;;8.07;3.87;;;;;;;11.72;69.33;95045.19;4985636;28;20494;-68
2023/04/12 09:48:40;;;;;;;8.67;4.47;;;;;;;11.73;68.73;95052.09;4986830;28;20201;-69
2023/04/12 09:51:06;;;;;;;14.03;3.60;;;;;;;11.90;67.44;95050.94;4987100;28;20432;-67
2023/04/12 09:53:36;;;;;;;6.90;3.50;;;;;;;12.02;67.20;95047.47;4986906;28;20451;-68
2023/04/12 09:56:07;;;;;;;18.58;4.28;;;;;;;12.16;67.09;95043.81;4981752;28;20441;-68
2023/04/12 09:58:35;;;;;;;12.20;4.23;;;;;;;12.28;65.89;95037.69;4971895;28;20268;-69
2023/04/12 10:01:02;;;;;;;10.23;4.50;;;;;;;12.19;66.82;95029.59;4981655;28;20549;-68
2023/04/12 10:03:28;;;;;;;10.73;3.60;;;;;;;12.24;67.35;95024.88;4985985;28;20414;-69
2023/04/12 10:05:54;;;;;;;10.10;3.90;;;;;;;12.44;65.75;95037.41;4989517;28;20430;-69
2023/04/12 10:08:23;;;;;;;18.80;4.07;;;;;;;12.64;65.62;95032.50;4990556;28;20502;-68
2023/04/12 10:10:49;;;;;;;5.60;3.93;;;;;;;12.55;64.83;95031.38;4975344;28;20463;-69
2023/04/12 10:13:14;;;;;;;5.67;3.90;;;;;;;12.52;65.01;95022.84;4971456;28;20459;-68
2023/04/12 10:15:40;;;;;;;5.63;3.47;;;;;;;12.46;64.89;95024.16;4973841;28;20185;-68
2023/04/12 10:18:06;;;;;;;5.37;3.90;;;;;;;12.46;65.53;95027.59;4978165;28;20646;-68
2023/04/12 10:20:31;;;;;;;11.87;4.50;;;;;;;12.65;66.60;95018.38;4979682;28;20939;-68
2023/04/12 10:23:00;;;;;;;5.80;3.07;;;;;;;13.64;65.42;95004.69;4990839;28;20598;-68
2023/04/12 10:25:31;;;;;;;10.27;4.60;;;;;;;14.08;63.45;95005.59;4990480;28;20225;-68
2023/04/12 10:28:12;;;;;;;5.60;4.20;;;;;;;13.29;63.13;95015.31;4983627;28;20443;-69
2023/04/12 10:30:38;;;;;;;8.27;4.30;;;;;;;13.04;65.62;95001.38;4980775;28;20458;-68
2023/04/12 10:33:03;;;;;;;9.10;5.87;;;;;;;13.10;66.68;95000.06;4975051;28;20424;-68
2023/04/12 10:35:52;;;;;;;10.20;3.90;;;;;;;12.99;65.98;95006.16;4981471;28;20197;-69
2023/04/12 10:38:18;;;;;;;12.93;4.10;;;;;;;12.92;66.19;95011.03;4987390;28;20184;-69
2023/04/12 10:41:28;;;;;;;4.63;4.00;;;;;;;12.83;65.43;95014.38;4979747;28;20471;-69
2023/04/12 10:44:25;;;;;;;6.83;5.30;;;;;;;12.78;67.48;95019.13;4988458;28;20456;-68
2023/04/12 10:46:50;;;;;;;8.47;4.63;;;;;;;12.80;67.47;95021.63;4977087;28;21002;-69
2023/04/12 10:49:16;;;;;;;8.33;3.67;;;;;;;12.77;67.39;95008.72;4981679;28;20412;-68
2023/04/12 10:52:14;;;;;;;6.37;4.53;;;;;;;12.63;67.06;95001.84;4973499;28;20172;-67
2023/04/12 10:54:40;;;;;;;10.10;4.00;;;;;;;12.66;67.35;94991.94;4967170;28;20498;-67
2023/04/12 10:57:06;;;;;;;4.50;3.63;;;;;;;12.69;67.65;94996.13;4976430;28;20777;-67
2023/04/12 10:59:51;;;;;;;6.40;3.90;;;;;;;12.81;66.54;94992.56;4982767;28;20537;-68
2023/04/12 11:02:17;;;;;;;5.93;4.40;;;;;;;12.87;66.40;95001.78;4980181;28;20467;-68
2023/04/12 11:05:21;;;;;;;4.77;3.70;;;;;;;12.86;65.76;94994.88;4984957;28;20432;-69
2023/04/12 11:07:46;;;;;;;6.63;4.10;;;;;;;12.87;66.53;94992.13;4939348;28;20208;-68
2023/04/12 11:10:14;;;;;;;5.97;3.30;;;;;;;12.86;65.70;94998.31;4959610;28;20460;-68
2023/04/12 11:12:40;;;;;;;5.30;4.07;;;;;;;12.82;65.63;94988.97;4962805;28;20715;-69
2023/04/12 11:15:06;;;;;;;9.10;3.80;;;;;;;12.98;65.25;94983.41;4958654;28;20422;-68
2023/04/12 11:17:32;;;;;;;13.53;4.50;;;;;;;12.93;65.68;94975.00;4947865;28;20661;-68
2023/04/12 11:20:00;;;;;;;5.03;4.20;;;;;;;13.00;65.72;94978.84;4961605;28;20461;-67
2023/04/12 11:22:31;;;;;;;3.83;3.40;;;;;;;13.11;64.65;94978.06;4963521;28;20210;-67
2023/04/12 11:24:59;;;;;;;5.13;3.73;;;;;;;13.17;65.91;94977.56;4960711;28;20926;-67
2023/04/12 11:27:25;;;;;;;6.80;3.50;;;;;;;13.24;65.75;94984.03;4955700;28;21304;-66
2023/04/12 11:29:56;;;;;;;10.00;4.13;;;;;;;13.30;65.57;94983.59;4958018;28;20496;-69
2023/04/12 11:32:23;;;;;;;11.57;4.40;;;;;;;13.43;64.01;94977.38;4940340;28;20421;-68
2023/04/12 11:34:49;;;;;;;7.90;3.60;;;;;;;13.42;63.72;94970.44;4951371;28;20430;-67
2023/04/12 11:37:18;;;;;;;9.33;3.43;;;;;;;13.46;64.06;94971.84;4949666;28;20422;-68
2023/04/12 11:39:45;;;;;;;4.73;3.77;;;;;;;13.51;64.68;94973.19;4979653;28;20481;-66
2023/04/12 11:42:19;;;;;;;6.30;3.80;;;;;;;13.47;63.28;94971.75;4979986;28;20463;-67